createdAt,value
2016-11-17T00:03:12.298Z,1007
2016-11-17T00:08:16.402Z,1007.1
2016-11-17T00:13:20.494Z,1006.9
2016-11-17T00:18:24.583Z,1006.9
2016-11-17T00:23:28.672Z,1006.9
2016-11-17T00:28:33.092Z,1006.9
2016-11-17T00:33:37.844Z,1006.8
2016-11-17T00:38:41.935Z,1006.8
2016-11-17T00:43:46.044Z,1006.7
2016-11-17T00:48:50.472Z,1006.6
2016-11-17T00:53:55.229Z,1006.7
2016-11-17T00:58:59.983Z,1006.6
2016-11-17T01:04:04.402Z,1006.6
2016-11-17T01:09:08.821Z,1006.6
2016-11-17T01:14:12.906Z,1006.5
2016-11-17T01:19:16.997Z,1006.4
2016-11-17T01:24:21.759Z,1006.5
2016-11-17T01:29:25.844Z,1006.4
2016-11-17T01:34:30.301Z,1006.4
2016-11-17T01:39:34.745Z,1006.3
2016-11-17T01:44:38.840Z,1006.2
2016-11-17T01:49:43.261Z,1006.3
2016-11-17T01:54:48.018Z,1006.2
2016-11-17T01:59:52.103Z,1006.2
2016-11-17T02:04:56.523Z,1006.2
2016-11-17T02:10:00.628Z,1006.2
2016-11-17T02:15:05.055Z,1006.2
2016-11-17T02:20:09.475Z,1006.2
2016-11-17T02:25:13.561Z,1006.2
2016-11-17T02:30:17.676Z,1006.1
2016-11-17T02:35:21.779Z,1006.1
2016-11-17T02:40:26.220Z,1006.1
2016-11-17T02:45:30.307Z,1006
2016-11-17T02:50:34.729Z,1006.1
2016-11-17T02:55:38.810Z,1006
2016-11-17T03:00:42.892Z,1006
2016-11-17T03:05:47.309Z,1005.9
2016-11-17T03:10:51.390Z,1005.8
2016-11-17T03:15:55.471Z,1005.8
2016-11-17T03:21:00.231Z,1005.8
2016-11-17T03:26:04.316Z,1005.8
2016-11-17T03:31:08.405Z,1005.7
2016-11-17T03:36:12.524Z,1005.7
2016-11-17T03:41:16.621Z,1005.7
2016-11-17T03:46:20.713Z,1005.7
2016-11-17T03:51:25.133Z,1005.6
2016-11-17T03:56:29.222Z,1005.6
2016-11-17T04:01:33.305Z,1005.6
2016-11-17T04:06:37.389Z,1005.6
2016-11-17T04:11:42.151Z,1005.6
2016-11-17T04:16:46.580Z,1005.5
2016-11-17T04:21:50.996Z,1005.5
2016-11-17T04:26:55.755Z,1005.6
2016-11-17T04:32:00.199Z,1005.4
2016-11-17T04:37:04.626Z,1005.4
2016-11-17T04:42:09.381Z,1005.4
2016-11-17T04:47:13.474Z,1005.3
2016-11-17T04:52:17.897Z,1005.3
2016-11-17T04:57:22.656Z,1005.3
2016-11-17T05:02:26.764Z,1005.3
2016-11-17T05:07:31.183Z,1005.3
2016-11-17T05:12:35.277Z,1005.2
2016-11-17T05:17:39.697Z,1005.1
2016-11-17T05:22:43.779Z,1005.3
2016-11-17T05:27:47.926Z,1005.2
2016-11-17T05:32:52.396Z,1005.1
2016-11-17T05:37:56.489Z,1005
2016-11-17T05:43:01.250Z,1005
2016-11-17T05:48:05.666Z,1004.9
2016-11-17T05:53:09.750Z,1004.9
2016-11-17T05:58:13.837Z,1004.9
2016-11-17T06:03:18.254Z,1004.8
2016-11-17T06:08:22.344Z,1004.7
2016-11-17T06:13:26.431Z,1004.7
2016-11-17T06:18:30.852Z,1004.7
2016-11-17T06:23:35.284Z,1004.7
2016-11-17T06:28:39.397Z,1004.7
2016-11-17T06:33:43.812Z,1004.7
2016-11-17T06:38:48.236Z,1004.6
2016-11-17T06:43:52.657Z,1004.6
2016-11-17T06:48:57.088Z,1004.7
2016-11-17T06:54:01.170Z,1004.7
2016-11-17T06:59:05.353Z,1004.7
2016-11-17T07:04:09.778Z,1004.7
2016-11-17T07:09:14.765Z,1004.7
2016-11-17T07:14:18.857Z,1004.6
2016-11-17T07:19:22.951Z,1004.5
2016-11-17T07:24:27.710Z,1004.5
2016-11-17T07:29:32.138Z,1004.5
2016-11-17T07:34:36.239Z,1004.5
2016-11-17T07:39:40.661Z,1004.5
2016-11-17T07:44:44.760Z,1004.5
2016-11-17T07:49:48.852Z,1004.5
2016-11-17T07:54:52.943Z,1004.4
2016-11-17T07:59:57.046Z,1004.3
2016-11-17T08:05:01.135Z,1004.3
2016-11-17T08:10:05.225Z,1004.3
2016-11-17T08:15:09.317Z,1004.2
2016-11-17T08:20:13.738Z,1004.3
2016-11-17T08:25:17.831Z,1004.3
2016-11-17T08:30:21.921Z,1004.3
2016-11-17T08:35:26.678Z,1004.3
2016-11-17T08:40:30.765Z,1004.3
2016-11-17T08:45:34.864Z,1004.2
2016-11-17T08:50:39.289Z,1004.2
2016-11-17T08:55:43.379Z,1004.1
2016-11-17T09:00:47.469Z,1004
2016-11-17T09:05:51.901Z,1004.1
2016-11-17T09:10:56.321Z,1004.1
2016-11-17T09:16:00.749Z,1004
2016-11-17T09:21:04.832Z,1003.9
2016-11-17T09:26:08.926Z,1003.8
2016-11-17T09:31:13.685Z,1003.7
2016-11-17T09:36:18.114Z,1003.6
2016-11-17T09:41:22.616Z,1003.6
2016-11-17T09:46:26.757Z,1003.6
2016-11-17T09:51:30.850Z,1003.6
2016-11-17T09:56:34.948Z,1003.6
2016-11-17T10:01:39.373Z,1003.6
2016-11-17T10:06:43.616Z,1003.5
2016-11-17T10:11:47.750Z,1003.5
2016-11-17T10:16:52.177Z,1003.3
2016-11-17T10:21:56.274Z,1003.2
2016-11-17T10:27:00.704Z,1003
2016-11-17T10:32:04.792Z,1003
2016-11-17T10:37:08.887Z,1003
2016-11-17T10:42:12.980Z,1003
2016-11-17T10:47:17.075Z,1002.9
2016-11-17T10:52:21.168Z,1002.9
2016-11-17T10:57:25.263Z,1003
2016-11-17T11:02:29.692Z,1002.9
2016-11-17T11:07:34.127Z,1002.8
2016-11-17T11:12:38.884Z,1002.6
2016-11-17T11:17:42.983Z,1002.5
2016-11-17T11:22:47.076Z,1002.5
2016-11-17T11:27:51.318Z,1002.5
2016-11-17T11:32:56.083Z,1002.3
2016-11-17T11:38:00.184Z,1002.3
2016-11-17T11:43:04.275Z,1002.3
2016-11-17T11:48:08.363Z,1002.3
2016-11-17T11:53:12.792Z,1002.1
2016-11-17T11:58:17.570Z,1002.2
2016-11-17T12:03:21.660Z,1002
2016-11-17T12:08:26.092Z,1001.8
2016-11-17T12:13:30.181Z,1001.9
2016-11-17T12:18:34.611Z,1001.8
2016-11-17T12:23:39.031Z,1001.9
2016-11-17T12:28:43.461Z,1001.9
2016-11-17T12:33:48.226Z,1001.8
2016-11-17T12:38:52.988Z,1001.8
2016-11-17T12:43:57.077Z,1001.8
2016-11-17T12:49:01.506Z,1001.7
2016-11-17T12:54:06.276Z,1001.6
2016-11-17T12:59:10.709Z,1001.6
2016-11-17T13:04:14.876Z,1001.5
2016-11-17T13:09:19.320Z,1001.3
2016-11-17T13:14:23.764Z,1001.2
2016-11-17T13:19:27.846Z,1001.2
2016-11-17T13:24:31.944Z,1001.1
2016-11-17T13:29:36.043Z,1001.3
2016-11-17T13:34:40.144Z,1001.1
2016-11-17T13:39:44.242Z,1001.2
2016-11-17T13:44:48.947Z,1001.2
2016-11-17T13:49:53.037Z,1001.2
2016-11-17T13:54:57.128Z,1001.1
2016-11-17T14:00:01.556Z,1001.1
2016-11-17T14:05:05.648Z,1001.1
2016-11-17T14:10:09.759Z,1001
2016-11-17T14:15:14.182Z,1001
2016-11-17T14:20:19.292Z,1000.9
2016-11-17T14:25:23.714Z,1000.9
2016-11-17T14:30:28.140Z,1001
2016-11-17T14:35:32.564Z,1001
2016-11-17T14:40:36.652Z,1000.9
2016-11-17T14:45:40.747Z,1000.9
2016-11-17T14:50:45.213Z,1000.8
2016-11-17T14:55:49.377Z,1000.7
2016-11-17T15:00:53.479Z,1000.8
2016-11-17T15:05:57.571Z,1000.7
2016-11-17T15:11:01.681Z,1000.6
2016-11-17T15:16:06.144Z,1000.5
2016-11-17T15:21:10.587Z,1000.5
2016-11-17T15:26:15.020Z,1000.6
2016-11-17T15:31:19.782Z,1000.5
2016-11-17T15:36:24.066Z,1000.5
2016-11-17T15:41:28.148Z,1000.4
2016-11-17T15:46:32.912Z,1000.4
2016-11-17T15:51:37.339Z,1000.3
2016-11-17T15:56:41.430Z,1000.2
2016-11-17T16:01:45.857Z,1000.2
2016-11-17T16:06:49.942Z,1000.2
2016-11-17T16:11:54.030Z,1000.2
2016-11-17T16:16:58.794Z,1000.1
2016-11-17T16:22:02.888Z,1000.1
2016-11-17T16:27:06.975Z,1000
2016-11-17T16:32:11.091Z,999.9
2016-11-17T16:37:15.204Z,999.8
2016-11-17T16:42:19.314Z,999.8
2016-11-17T16:47:23.729Z,999.8
2016-11-17T16:52:28.155Z,999.7
2016-11-17T16:57:32.243Z,999.6
2016-11-17T17:02:36.341Z,999.5
2016-11-17T17:07:40.429Z,999.6
2016-11-17T17:12:44.522Z,999.5
2016-11-17T17:17:48.633Z,999.5
2016-11-17T17:22:53.067Z,999.3
2016-11-17T17:27:57.190Z,999.3
2016-11-17T17:33:01.292Z,999.2
2016-11-17T17:38:05.405Z,999.1
2016-11-17T17:43:09.825Z,999
2016-11-17T17:48:14.250Z,999
2016-11-17T17:53:18.684Z,998.9
2016-11-17T17:58:22.777Z,998.7
2016-11-17T18:03:26.868Z,998.8
2016-11-17T18:08:31.306Z,998.8
2016-11-17T18:13:35.392Z,998.7
2016-11-17T18:18:39.481Z,998.5
2016-11-17T18:23:43.905Z,998.4
2016-11-17T18:28:47.993Z,998.2
2016-11-17T18:33:52.109Z,998.2
2016-11-17T18:38:56.226Z,998.1
2016-11-17T18:44:00.657Z,997.8
2016-11-17T18:49:05.080Z,997.8
2016-11-17T18:54:09.170Z,997.7
2016-11-17T18:59:13.597Z,997.6
2016-11-17T19:04:18.365Z,997.6
2016-11-17T19:09:22.465Z,997.6
2016-11-17T19:14:26.889Z,997.4
2016-11-17T19:19:31.316Z,997.2
2016-11-17T19:24:35.741Z,997.1
2016-11-17T19:29:39.945Z,997.2
2016-11-17T19:34:44.098Z,997
2016-11-17T19:39:48.877Z,997
2016-11-17T19:44:53.319Z,996.9
2016-11-17T19:49:57.748Z,996.7
2016-11-17T19:55:01.835Z,996.7
2016-11-17T20:00:06.596Z,996.6
2016-11-17T20:05:10.687Z,996.4
2016-11-17T20:10:15.446Z,996.4
2016-11-17T20:15:19.527Z,996.4
2016-11-17T20:20:24.014Z,996.4
2016-11-17T20:25:28.742Z,996.6
2016-11-17T20:30:32.837Z,996.4
2016-11-17T20:35:36.927Z,996.2
2016-11-17T20:40:41.468Z,996.2
2016-11-17T20:45:45.574Z,996.2
2016-11-17T20:50:49.666Z,996
2016-11-17T20:55:53.748Z,996.1
2016-11-17T21:00:57.841Z,996.1
2016-11-17T21:06:01.937Z,996
2016-11-17T21:11:06.024Z,995.7
2016-11-17T21:16:10.491Z,995.4
2016-11-17T21:21:14.586Z,995.4
2016-11-17T21:26:18.677Z,995.3
2016-11-17T21:31:22.779Z,995.5
2016-11-17T21:36:27.197Z,995.4
2016-11-17T21:41:31.631Z,995.3
2016-11-17T21:46:36.114Z,995.2
2016-11-17T21:51:40.225Z,995.1
2016-11-17T21:56:44.315Z,995
2016-11-17T22:01:48.419Z,994.9
2016-11-17T22:06:52.842Z,995
2016-11-17T22:11:56.933Z,994.8
2016-11-17T22:17:01.021Z,994.8
2016-11-17T22:22:05.114Z,994.8
2016-11-17T22:27:09.209Z,994.8
2016-11-17T22:32:13.642Z,994.8
2016-11-17T22:37:18.062Z,994.8
2016-11-17T22:42:22.498Z,994.7
2016-11-17T22:47:26.584Z,994.8
2016-11-17T22:52:30.674Z,994.7
2016-11-17T22:57:34.773Z,994.7
2016-11-17T23:02:39.202Z,994.6
2016-11-17T23:07:43.285Z,994.6
2016-11-17T23:12:47.709Z,994.5
2016-11-17T23:17:51.800Z,994.3
2016-11-17T23:22:56.221Z,994.1
2016-11-17T23:28:00.309Z,994
2016-11-17T23:33:04.398Z,993.9
2016-11-17T23:38:08.484Z,993.9
2016-11-17T23:43:12.913Z,994
2016-11-17T23:48:17.010Z,994.3
2016-11-17T23:53:21.446Z,994.2
2016-11-17T23:58:25.538Z,994.4
